Weather at Greenville/Sinoe Airport

Public forecast

Using degrees Celsius for public forecast. Weather courtesy of forecast.io.

Closest aviation weather report (METAR) to Greenville/Sinoe Airport

Closest report is Roberts International Airport, 105.9 nm (196.2 km) NW. Retrieved 2021/03/06 11:30 UTC (2 hours ago):

GLRB 061130Z 00000KT 9999 BKN014 FEW024CB 29/26 Q1013 NOSIG RMK CB/S-SW

Closest aviation forecast (TAF) to Greenville/Sinoe Airport

Closest forecast is Roberts International Airport, 105.9 nm (196.2 km) NW. Retrieved 2021/03/06 12:03 UTC (59 minutes ago):

TAF TAF GLRB 061100Z 0612/0712 22008KT 9999 BKN016 BECMG 0613/0615 20005KT 7000 TSRA BKN013 FEW023CB TEMPO 0616/0620 VRB02KT 9999 BKN012 BECMG 0622/0624 00000KT 9000 SCT012